sensor_id;sensor_type;location;lat;lon;timestamp;pressure;altitude;pressure_sealevel;temperature;humidity
10668;BME280;5382;42.136;24.796;2023-12-29T00:02:16;100613.19;;;5.58;100.00
10668;BME280;5382;42.136;24.796;2023-12-29T00:04:44;100616.34;;;5.66;100.00
10668;BME280;5382;42.136;24.796;2023-12-29T00:07:11;100618.47;;;5.57;100.00
10668;BME280;5382;42.136;24.796;2023-12-29T00:09:39;100613.19;;;5.58;100.00
10668;BME280;5382;42.136;24.796;2023-12-29T00:12:07;100612.25;;;5.59;100.00
10668;BME280;5382;42.136;24.796;2023-12-29T00:14:37;100619.22;;;5.60;100.00
10668;BME280;5382;42.136;24.796;2023-12-29T00:17:04;100606.88;;;5.62;100.00
10668;BME280;5382;42.136;24.796;2023-12-29T00:19:31;100584.59;;;5.51;100.00
10668;BME280;5382;42.136;24.796;2023-12-29T00:21:59;100604.25;;;5.62;100.00
10668;BME280;5382;42.136;24.796;2023-12-29T00:24:28;100607.00;;;5.59;100.00
10668;BME280;5382;42.136;24.796;2023-12-29T00:26:57;100612.38;;;5.56;100.00
10668;BME280;5382;42.136;24.796;2023-12-29T00:29:24;100607.09;;;5.58;100.00
10668;BME280;5382;42.136;24.796;2023-12-29T00:31:51;100600.78;;;5.62;100.00
10668;BME280;5382;42.136;24.796;2023-12-29T00:34:18;100605.53;;;5.52;100.00
10668;BME280;5382;42.136;24.796;2023-12-29T00:36:45;100599.56;;;5.49;100.00
10668;BME280;5382;42.136;24.796;2023-12-29T00:39:13;100607.47;;;5.47;100.00
10668;BME280;5382;42.136;24.796;2023-12-29T00:41:41;100601.16;;;5.53;100.00
10668;BME280;5382;42.136;24.796;2023-12-29T00:44:08;100592.66;;;5.46;100.00
10668;BME280;5382;42.136;24.796;2023-12-29T00:46:35;100594.84;;;5.57;100.00
10668;BME280;5382;42.136;24.796;2023-12-29T00:49:02;100589.59;;;5.57;100.00
10668;BME280;5382;42.136;24.796;2023-12-29T00:51:29;100579.09;;;5.57;100.00
10668;BME280;5382;42.136;24.796;2023-12-29T00:53:56;100570.81;;;5.45;100.00
10668;BME280;5382;42.136;24.796;2023-12-29T00:56:24;100597.47;;;5.57;100.00
10668;BME280;5382;42.136;24.796;2023-12-29T00:58:51;100601.75;;;5.59;100.00
10668;BME280;5382;42.136;24.796;2023-12-29T01:01:18;100596.69;;;5.55;100.00
10668;BME280;5382;42.136;24.796;2023-12-29T01:03:45;100601.09;;;5.32;100.00
10668;BME280;5382;42.136;24.796;2023-12-29T01:06:12;100605.31;;;4.66;100.00
10668;BME280;5382;42.136;24.796;2023-12-29T01:08:39;100596.34;;;4.48;100.00
10668;BME280;5382;42.136;24.796;2023-12-29T01:11:06;100590.72;;;4.33;100.00
10668;BME280;5382;42.136;24.796;2023-12-29T01:13:35;100577.88;;;4.26;100.00
10668;BME280;5382;42.136;24.796;2023-12-29T01:16:01;100580.59;;;3.71;100.00
10668;BME280;5382;42.136;24.796;2023-12-29T01:18:28;100575.59;;;3.65;100.00
10668;BME280;5382;42.136;24.796;2023-12-29T01:20:55;100564.97;;;3.69;100.00
10668;BME280;5382;42.136;24.796;2023-12-29T01:23:22;100557.91;;;3.71;100.00
10668;BME280;5382;42.136;24.796;2023-12-29T01:25:49;100561.22;;;3.77;100.00
10668;BME280;5382;42.136;24.796;2023-12-29T01:28:16;100565.69;;;3.75;100.00
10668;BME280;5382;42.136;24.796;2023-12-29T01:30:45;100553.69;;;3.67;100.00
10668;BME280;5382;42.136;24.796;2023-12-29T01:33:12;100564.16;;;3.67;100.00
10668;BME280;5382;42.136;24.796;2023-12-29T01:35:39;100561.44;;;3.70;100.00
10668;BME280;5382;42.136;24.796;2023-12-29T01:38:05;100565.75;;;3.71;100.00
10668;BME280;5382;42.136;24.796;2023-12-29T01:40:32;100558.09;;;3.67;100.00
10668;BME280;5382;42.136;24.796;2023-12-29T01:43:08;100560.25;;;3.54;100.00
10668;BME280;5382;42.136;24.796;2023-12-29T01:45:35;100565.38;;;3.57;100.00
10668;BME280;5382;42.136;24.796;2023-12-29T01:48:05;100553.97;;;3.58;100.00
10668;BME280;5382;42.136;24.796;2023-12-29T01:50:32;100554.91;;;3.57;100.00
10668;BME280;5382;42.136;24.796;2023-12-29T01:53:01;100549.59;;;3.59;100.00
10668;BME280;5382;42.136;24.796;2023-12-29T01:55:29;100551.94;;;3.68;100.00
10668;BME280;5382;42.136;24.796;2023-12-29T01:57:57;100554.44;;;3.71;100.00
10668;BME280;5382;42.136;24.796;2023-12-29T02:00:24;100511.84;;;3.41;100.00
10668;BME280;5382;42.136;24.796;2023-12-29T02:02:51;100552.13;;;3.62;100.00
10668;BME280;5382;42.136;24.796;2023-12-29T02:05:21;100549.81;;;3.53;100.00
10668;BME280;5382;42.136;24.796;2023-12-29T02:07:51;100556.56;;;3.60;100.00
10668;BME280;5382;42.136;24.796;2023-12-29T02:10:19;100564.03;;;3.72;100.00
10668;BME280;5382;42.136;24.796;2023-12-29T02:12:47;100561.47;;;3.69;100.00
10668;BME280;5382;42.136;24.796;2023-12-29T02:15:15;100569.16;;;3.75;100.00
10668;BME280;5382;42.136;24.796;2023-12-29T02:17:45;100559.91;;;3.63;100.00
10668;BME280;5382;42.136;24.796;2023-12-29T02:20:14;100535.97;;;3.49;100.00
10668;BME280;5382;42.136;24.796;2023-12-29T02:22:42;100546.72;;;3.66;100.00
10668;BME280;5382;42.136;24.796;2023-12-29T02:25:11;100551.44;;;3.57;100.00
10668;BME280;5382;42.136;24.796;2023-12-29T02:27:45;100552.31;;;3.56;100.00
10668;BME280;5382;42.136;24.796;2023-12-29T02:30:18;100545.63;;;3.47;100.00
10668;BME280;5382;42.136;24.796;2023-12-29T02:32:47;100544.97;;;3.40;100.00
10668;BME280;5382;42.136;24.796;2023-12-29T02:35:21;100518.22;;;3.04;100.00
10668;BME280;5382;42.136;24.796;2023-12-29T02:37:49;100541.84;;;3.29;100.00
10668;BME280;5382;42.136;24.796;2023-12-29T02:40:19;100539.97;;;3.33;100.00
10668;BME280;5382;42.136;24.796;2023-12-29T02:42:47;100527.31;;;3.20;100.00
10668;BME280;5382;42.136;24.796;2023-12-29T02:45:15;100536.38;;;3.37;100.00
10668;BME280;5382;42.136;24.796;2023-12-29T02:47:42;100540.88;;;3.32;100.00
10668;BME280;5382;42.136;24.796;2023-12-29T02:50:10;100530.22;;;3.38;100.00
10668;BME280;5382;42.136;24.796;2023-12-29T02:52:37;100522.31;;;3.41;100.00
10668;BME280;5382;42.136;24.796;2023-12-29T02:55:04;100522.38;;;3.38;100.00
10668;BME280;5382;42.136;24.796;2023-12-29T02:57:33;100518.06;;;3.37;100.00
10668;BME280;5382;42.136;24.796;2023-12-29T03:00:00;100505.78;;;3.39;100.00
10668;BME280;5382;42.136;24.796;2023-12-29T03:02:28;100521.59;;;3.62;100.00
10668;BME280;5382;42.136;24.796;2023-12-29T03:04:58;100510.75;;;3.73;100.00
10668;BME280;5382;42.136;24.796;2023-12-29T03:07:25;100501.97;;;3.74;100.00
10668;BME280;5382;42.136;24.796;2023-12-29T03:09:52;100479.56;;;3.67;100.00
10668;BME280;5382;42.136;24.796;2023-12-29T03:12:19;100513.66;;;3.90;100.00
10668;BME280;5382;42.136;24.796;2023-12-29T03:14:47;100519.63;;;3.94;100.00
10668;BME280;5382;42.136;24.796;2023-12-29T03:17:14;100524.19;;;3.89;100.00
10668;BME280;5382;42.136;24.796;2023-12-29T03:19:41;100512.97;;;3.85;100.00
10668;BME280;5382;42.136;24.796;2023-12-29T03:22:08;100512.84;;;3.88;100.00
10668;BME280;5382;42.136;24.796;2023-12-29T03:24:36;100500.72;;;3.86;100.00
10668;BME280;5382;42.136;24.796;2023-12-29T03:27:03;100499.59;;;3.93;100.00
10668;BME280;5382;42.136;24.796;2023-12-29T03:29:31;100499.97;;;3.82;100.00
10668;BME280;5382;42.136;24.796;2023-12-29T03:31:59;100498.84;;;3.89;100.00
10668;BME280;5382;42.136;24.796;2023-12-29T03:34:26;100499.28;;;3.77;100.00
10668;BME280;5382;42.136;24.796;2023-12-29T03:36:53;100496.94;;;3.69;100.00
10668;BME280;5382;42.136;24.796;2023-12-29T03:39:20;100497.06;;;3.65;100.00
10668;BME280;5382;42.136;24.796;2023-12-29T03:41:49;100500.75;;;3.59;100.00
10668;BME280;5382;42.136;24.796;2023-12-29T03:44:16;100505.22;;;3.56;100.00
10668;BME280;5382;42.136;24.796;2023-12-29T03:46:43;100476.09;;;3.40;100.00
10668;BME280;5382;42.136;24.796;2023-12-29T03:49:11;100496.03;;;3.44;100.00
10668;BME280;5382;42.136;24.796;2023-12-29T03:51:38;100485.00;;;3.34;100.00
10668;BME280;5382;42.136;24.796;2023-12-29T03:54:05;100494.72;;;3.31;100.00
10668;BME280;5382;42.136;24.796;2023-12-29T03:56:32;100499.31;;;3.22;100.00
10668;BME280;5382;42.136;24.796;2023-12-29T03:58:59;100486.66;;;3.10;100.00
10668;BME280;5382;42.136;24.796;2023-12-29T04:01:26;100494.50;;;3.10;100.00
10668;BME280;5382;42.136;24.796;2023-12-29T04:03:54;100489.56;;;3.01;100.00
10668;BME280;5382;42.136;24.796;2023-12-29T04:06:22;100482.09;;;2.89;100.00
10668;BME280;5382;42.136;24.796;2023-12-29T04:08:49;100492.13;;;2.74;100.00
10668;BME280;5382;42.136;24.796;2023-12-29T04:11:16;100455.53;;;2.45;100.00
10668;BME280;5382;42.136;24.796;2023-12-29T04:13:43;100480.84;;;2.72;100.00
10668;BME280;5382;42.136;24.796;2023-12-29T04:16:10;100477.88;;;2.55;100.00
10668;BME280;5382;42.136;24.796;2023-12-29T04:18:37;100488.47;;;2.50;100.00
10668;BME280;5382;42.136;24.796;2023-12-29T04:21:04;100479.66;;;2.54;100.00
10668;BME280;5382;42.136;24.796;2023-12-29T04:23:32;100483.16;;;2.53;100.00
10668;BME280;5382;42.136;24.796;2023-12-29T04:25:59;100451.88;;;2.50;100.00
10668;BME280;5382;42.136;24.796;2023-12-29T04:28:26;100458.84;;;2.51;100.00
10668;BME280;5382;42.136;24.796;2023-12-29T04:30:53;100473.47;;;2.57;100.00
10668;BME280;5382;42.136;24.796;2023-12-29T04:33:20;100472.94;;;2.46;100.00
10668;BME280;5382;42.136;24.796;2023-12-29T04:35:47;100456.38;;;2.45;100.00
10668;BME280;5382;42.136;24.796;2023-12-29T04:38:14;100465.00;;;2.49;100.00
10668;BME280;5382;42.136;24.796;2023-12-29T04:40:44;100474.84;;;2.40;100.00
10668;BME280;5382;42.136;24.796;2023-12-29T04:43:12;100455.03;;;2.32;100.00
10668;BME280;5382;42.136;24.796;2023-12-29T04:45:39;100466.00;;;2.45;100.00
10668;BME280;5382;42.136;24.796;2023-12-29T04:48:06;100468.69;;;2.42;100.00
10668;BME280;5382;42.136;24.796;2023-12-29T04:50:33;100473.69;;;2.49;100.00
10668;BME280;5382;42.136;24.796;2023-12-29T04:53:00;100471.22;;;2.45;100.00
10668;BME280;5382;42.136;24.796;2023-12-29T04:55:27;100479.84;;;2.48;100.00
10668;BME280;5382;42.136;24.796;2023-12-29T04:57:56;100476.81;;;2.32;100.00
10668;BME280;5382;42.136;24.796;2023-12-29T05:00:23;100478.69;;;2.27;100.00
10668;BME280;5382;42.136;24.796;2023-12-29T05:02:50;100461.53;;;2.18;100.00
10668;BME280;5382;42.136;24.796;2023-12-29T05:05:16;100446.97;;;2.10;100.00
10668;BME280;5382;42.136;24.796;2023-12-29T05:07:43;100476.00;;;2.30;100.00
10668;BME280;5382;42.136;24.796;2023-12-29T05:10:10;100480.94;;;2.39;100.00
10668;BME280;5382;42.136;24.796;2023-12-29T05:12:37;100480.94;;;2.39;100.00
10668;BME280;5382;42.136;24.796;2023-12-29T05:15:07;100473.88;;;2.43;100.00
10668;BME280;5382;42.136;24.796;2023-12-29T05:17:34;100472.16;;;2.42;100.00
10668;BME280;5382;42.136;24.796;2023-12-29T05:20:02;100476.31;;;2.49;100.00
10668;BME280;5382;42.136;24.796;2023-12-29T05:22:29;100479.75;;;2.51;100.00
10668;BME280;5382;42.136;24.796;2023-12-29T05:24:56;100467.78;;;2.43;100.00
10668;BME280;5382;42.136;24.796;2023-12-29T05:27:25;100469.44;;;2.45;100.00
10668;BME280;5382;42.136;24.796;2023-12-29T05:29:52;100458.97;;;2.47;100.00
10668;BME280;5382;42.136;24.796;2023-12-29T05:32:21;100472.28;;;2.67;100.00
10668;BME280;5382;42.136;24.796;2023-12-29T05:34:48;100481.31;;;2.57;100.00
10668;BME280;5382;42.136;24.796;2023-12-29T05:37:15;100484.25;;;2.46;100.00
10668;BME280;5382;42.136;24.796;2023-12-29T05:39:42;100469.03;;;2.29;100.00
10668;BME280;5382;42.136;24.796;2023-12-29T05:42:09;100483.72;;;2.33;100.00
10668;BME280;5382;42.136;24.796;2023-12-29T05:44:36;100494.06;;;2.07;100.00
10668;BME280;5382;42.136;24.796;2023-12-29T05:47:04;100497.00;;;1.94;100.00
10668;BME280;5382;42.136;24.796;2023-12-29T05:49:32;100488.34;;;1.92;100.00
10668;BME280;5382;42.136;24.796;2023-12-29T05:52:04;100494.22;;;2.01;100.00
10668;BME280;5382;42.136;24.796;2023-12-29T05:54:31;100501.06;;;2.05;100.00
10668;BME280;5382;42.136;24.796;2023-12-29T05:56:58;100488.84;;;2.07;100.00
10668;BME280;5382;42.136;24.796;2023-12-29T05:59:25;100457.53;;;1.74;100.00
10668;BME280;5382;42.136;24.796;2023-12-29T06:01:52;100500.06;;;2.09;100.00
10668;BME280;5382;42.136;24.796;2023-12-29T06:04:19;100484.56;;;2.04;100.00
10668;BME280;5382;42.136;24.796;2023-12-29T06:06:48;100492.63;;;2.26;100.00
10668;BME280;5382;42.136;24.796;2023-12-29T06:09:15;100496.28;;;2.21;100.00
10668;BME280;5382;42.136;24.796;2023-12-29T06:11:42;100503.78;;;2.33;100.00
10668;BME280;5382;42.136;24.796;2023-12-29T06:14:09;100489.91;;;2.31;100.00
10668;BME280;5382;42.136;24.796;2023-12-29T06:16:36;100502.19;;;2.27;100.00
10668;BME280;5382;42.136;24.796;2023-12-29T06:19:03;100492.69;;;2.25;100.00
10668;BME280;5382;42.136;24.796;2023-12-29T06:21:30;100490.97;;;2.24;100.00
10668;BME280;5382;42.136;24.796;2023-12-29T06:23:58;100497.31;;;2.45;100.00
10668;BME280;5382;42.136;24.796;2023-12-29T06:26:25;100505.66;;;2.57;100.00
10668;BME280;5382;42.136;24.796;2023-12-29T06:28:52;100509.06;;;2.61;100.00
10668;BME280;5382;42.136;24.796;2023-12-29T06:31:19;100494.91;;;2.68;100.00
10668;BME280;5382;42.136;24.796;2023-12-29T06:33:46;100484.75;;;2.59;100.00
10668;BME280;5382;42.136;24.796;2023-12-29T06:36:13;100506.53;;;2.88;100.00
10668;BME280;5382;42.136;24.796;2023-12-29T06:38:40;100502.09;;;2.90;100.00
10668;BME280;5382;42.136;24.796;2023-12-29T06:41:09;100501.72;;;3.02;100.00
10668;BME280;5382;42.136;24.796;2023-12-29T06:43:36;100505.59;;;3.17;100.00
10668;BME280;5382;42.136;24.796;2023-12-29T06:46:03;100491.31;;;3.00;100.00
10668;BME280;5382;42.136;24.796;2023-12-29T06:48:31;100492.16;;;3.01;100.00
10668;BME280;5382;42.136;24.796;2023-12-29T06:50:58;100488.56;;;3.05;100.00
10668;BME280;5382;42.136;24.796;2023-12-29T06:53:25;100465.31;;;2.96;100.00
10668;BME280;5382;42.136;24.796;2023-12-29T06:55:52;100498.69;;;3.16;100.00
10668;BME280;5382;42.136;24.796;2023-12-29T06:58:21;100479.38;;;2.92;100.00
10668;BME280;5382;42.136;24.796;2023-12-29T07:00:48;100495.13;;;3.18;100.00
10668;BME280;5382;42.136;24.796;2023-12-29T07:03:15;100497.41;;;3.27;100.00
10668;BME280;5382;42.136;24.796;2023-12-29T07:05:42;100493.72;;;3.35;100.00
10668;BME280;5382;42.136;24.796;2023-12-29T07:08:12;100498.13;;;3.33;100.00
10668;BME280;5382;42.136;24.796;2023-12-29T07:10:39;100493.72;;;3.35;100.00
10668;BME280;5382;42.136;24.796;2023-12-29T07:13:06;100503.88;;;3.44;100.00
10668;BME280;5382;42.136;24.796;2023-12-29T07:15:34;100502.47;;;3.60;100.00
10668;BME280;5382;42.136;24.796;2023-12-29T07:18:01;100496.56;;;3.54;100.00
10668;BME280;5382;42.136;24.796;2023-12-29T07:20:28;100491.78;;;3.66;100.00
10668;BME280;5382;42.136;24.796;2023-12-29T07:22:56;100495.78;;;3.77;100.00
10668;BME280;5382;42.136;24.796;2023-12-29T07:25:23;100476.56;;;3.78;100.00
10668;BME280;5382;42.136;24.796;2023-12-29T07:27:50;100491.41;;;4.02;100.00
10668;BME280;5382;42.136;24.796;2023-12-29T07:30:18;100476.66;;;4.00;100.00
10668;BME280;5382;42.136;24.796;2023-12-29T07:32:47;100490.44;;;4.30;100.00
10668;BME280;5382;42.136;24.796;2023-12-29T07:35:14;100499.34;;;4.49;100.00
10668;BME280;5382;42.136;24.796;2023-12-29T07:37:43;100487.28;;;4.67;100.00
10668;BME280;5382;42.136;24.796;2023-12-29T07:40:10;100493.16;;;4.74;100.00
10668;BME280;5382;42.136;24.796;2023-12-29T07:42:38;100477.19;;;4.80;100.00
10668;BME280;5382;42.136;24.796;2023-12-29T07:45:06;100494.53;;;5.06;100.00
10668;BME280;5382;42.136;24.796;2023-12-29T07:47:35;100496.22;;;5.29;100.00
10668;BME280;5382;42.136;24.796;2023-12-29T07:50:04;100485.19;;;5.43;100.00
10668;BME280;5382;42.136;24.796;2023-12-29T07:52:31;100481.66;;;5.64;100.00
10668;BME280;5382;42.136;24.796;2023-12-29T07:54:58;100469.81;;;5.97;100.00
10668;BME280;5382;42.136;24.796;2023-12-29T07:57:26;100480.56;;;6.11;100.00
10668;BME280;5382;42.136;24.796;2023-12-29T07:59:53;100452.50;;;6.11;100.00
10668;BME280;5382;42.136;24.796;2023-12-29T08:02:21;100479.72;;;6.29;100.00
10668;BME280;5382;42.136;24.796;2023-12-29T08:04:48;100471.59;;;6.36;100.00
10668;BME280;5382;42.136;24.796;2023-12-29T08:07:16;100490.06;;;6.53;100.00
10668;BME280;5382;42.136;24.796;2023-12-29T08:09:43;100483.34;;;6.66;100.00
10668;BME280;5382;42.136;24.796;2023-12-29T08:12:10;100482.31;;;6.88;100.00
10668;BME280;5382;42.136;24.796;2023-12-29T08:14:38;100482.38;;;7.05;100.00
10668;BME280;5382;42.136;24.796;2023-12-29T08:17:05;100480.50;;;7.07;100.00
10668;BME280;5382;42.136;24.796;2023-12-29T08:19:33;100471.97;;;7.21;100.00
10668;BME280;5382;42.136;24.796;2023-12-29T08:22:00;100491.53;;;7.52;100.00
10668;BME280;5382;42.136;24.796;2023-12-29T08:24:28;100395.09;;;6.97;100.00
10668;BME280;5382;42.136;24.796;2023-12-29T08:26:56;100497.16;;;7.79;100.00
10668;BME280;5382;42.136;24.796;2023-12-29T08:29:23;100494.53;;;7.96;100.00
10668;BME280;5382;42.136;24.796;2023-12-29T08:31:51;100488.31;;;8.15;100.00
10668;BME280;5382;42.136;24.796;2023-12-29T08:34:18;100488.19;;;8.34;100.00
10668;BME280;5382;42.136;24.796;2023-12-29T08:36:45;100467.69;;;8.39;100.00
10668;BME280;5382;42.136;24.796;2023-12-29T08:39:12;100464.25;;;8.54;100.00
10668;BME280;5382;42.136;24.796;2023-12-29T08:41:41;100479.34;;;8.84;100.00
10668;BME280;5382;42.136;24.796;2023-12-29T08:44:08;100479.72;;;8.93;100.00
10668;BME280;5382;42.136;24.796;2023-12-29T08:46:35;100476.09;;;9.10;100.00
10668;BME280;5382;42.136;24.796;2023-12-29T08:49:03;100473.44;;;9.26;100.00
10668;BME280;5382;42.136;24.796;2023-12-29T08:51:30;100472.22;;;9.32;100.00
10668;BME280;5382;42.136;24.796;2023-12-29T08:53:56;100472.88;;;9.51;100.00
10668;BME280;5382;42.136;24.796;2023-12-29T08:56:23;100459.75;;;9.50;100.00
10668;BME280;5382;42.136;24.796;2023-12-29T08:58:52;100463.41;;;9.63;100.00
10668;BME280;5382;42.136;24.796;2023-12-29T09:01:19;100437.91;;;9.62;100.00
10668;BME280;5382;42.136;24.796;2023-12-29T09:03:46;100461.34;;;9.68;100.00
10668;BME280;5382;42.136;24.796;2023-12-29T09:06:13;100443.38;;;9.59;100.00
10668;BME280;5382;42.136;24.796;2023-12-29T09:08:40;100458.69;;;9.68;100.00
10668;BME280;5382;42.136;24.796;2023-12-29T09:11:07;100448.84;;;9.56;100.00
10668;BME280;5382;42.136;24.796;2023-12-29T09:13:34;100463.53;;;9.76;100.00
10668;BME280;5382;42.136;24.796;2023-12-29T09:16:03;100452.78;;;9.93;100.00
10668;BME280;5382;42.136;24.796;2023-12-29T09:18:30;100452.56;;;9.96;100.00
10668;BME280;5382;42.136;24.796;2023-12-29T09:20:57;100453.56;;;10.10;100.00
10668;BME280;5382;42.136;24.796;2023-12-29T09:23:23;100453.34;;;10.27;100.00
10668;BME280;5382;42.136;24.796;2023-12-29T09:25:51;100447.72;;;10.47;100.00
10668;BME280;5382;42.136;24.796;2023-12-29T09:28:18;100447.22;;;10.55;100.00
10668;BME280;5382;42.136;24.796;2023-12-29T09:30:45;100445.44;;;10.56;100.00
10668;BME280;5382;42.136;24.796;2023-12-29T09:33:13;100446.19;;;10.72;100.00
10668;BME280;5382;42.136;24.796;2023-12-29T09:35:40;100435.66;;;10.70;100.00
10668;BME280;5382;42.136;24.796;2023-12-29T09:38:07;100439.00;;;10.74;100.00
10668;BME280;5382;42.136;24.796;2023-12-29T09:40:35;100435.13;;;10.65;100.00
10668;BME280;5382;42.136;24.796;2023-12-29T09:43:03;100424.88;;;10.74;100.00
10668;BME280;5382;42.136;24.796;2023-12-29T09:45:33;100418.38;;;10.79;100.00
10668;BME280;5382;42.136;24.796;2023-12-29T09:48:01;100413.00;;;10.94;100.00
10668;BME280;5382;42.136;24.796;2023-12-29T09:50:31;100419.66;;;11.13;100.00
10668;BME280;5382;42.136;24.796;2023-12-29T09:53:02;100415.47;;;11.24;100.00
10668;BME280;5382;42.136;24.796;2023-12-29T09:55:29;100408.38;;;11.37;100.00
10668;BME280;5382;42.136;24.796;2023-12-29T09:57:59;100400.53;;;11.35;100.00
10668;BME280;5382;42.136;24.796;2023-12-29T10:00:27;100400.47;;;11.50;100.00
10668;BME280;5382;42.136;24.796;2023-12-29T10:02:55;100392.50;;;11.50;100.00
10668;BME280;5382;42.136;24.796;2023-12-29T10:05:23;100392.94;;;11.69;96.81
10668;BME280;5382;42.136;24.796;2023-12-29T10:07:53;100389.78;;;11.64;95.19
10668;BME280;5382;42.136;24.796;2023-12-29T10:10:20;100386.38;;;11.75;94.99
10668;BME280;5382;42.136;24.796;2023-12-29T10:12:48;100374.94;;;11.62;94.29
10668;BME280;5382;42.136;24.796;2023-12-29T10:15:20;100371.72;;;11.69;93.38
10668;BME280;5382;42.136;24.796;2023-12-29T10:17:52;100365.50;;;11.70;91.55
10668;BME280;5382;42.136;24.796;2023-12-29T10:20:33;100355.72;;;11.84;92.83
10668;BME280;5382;42.136;24.796;2023-12-29T10:23:08;100353.63;;;11.89;93.80
10668;BME280;5382;42.136;24.796;2023-12-29T10:25:38;100358.06;;;12.01;91.51
10668;BME280;5382;42.136;24.796;2023-12-29T10:28:06;100347.88;;;12.08;92.20
10668;BME280;5382;42.136;24.796;2023-12-29T10:30:34;100349.34;;;12.25;93.58
10668;BME280;5382;42.136;24.796;2023-12-29T10:33:03;100351.25;;;12.22;95.05
10668;BME280;5382;42.136;24.796;2023-12-29T10:35:31;100331.28;;;12.30;95.86
10668;BME280;5382;42.136;24.796;2023-12-29T10:38:09;100339.97;;;12.32;97.96
10668;BME280;5382;42.136;24.796;2023-12-29T10:40:37;100341.66;;;12.33;95.82
10668;BME280;5382;42.136;24.796;2023-12-29T10:43:04;100340.66;;;12.47;94.07
10668;BME280;5382;42.136;24.796;2023-12-29T10:45:33;100338.59;;;12.63;95.61
10668;BME280;5382;42.136;24.796;2023-12-29T10:48:00;100333.38;;;12.85;92.95
10668;BME280;5382;42.136;24.796;2023-12-29T10:50:27;100336.38;;;13.16;88.82
10668;BME280;5382;42.136;24.796;2023-12-29T10:53:14;100331.81;;;13.87;85.90
10668;BME280;5382;42.136;24.796;2023-12-29T10:55:42;100325.75;;;14.74;79.86
10668;BME280;5382;42.136;24.796;2023-12-29T10:58:09;100311.50;;;15.59;77.74
10668;BME280;5382;42.136;24.796;2023-12-29T11:00:36;100294.81;;;16.38;72.07
10668;BME280;5382;42.136;24.796;2023-12-29T11:03:04;100291.66;;;17.12;68.91
10668;BME280;5382;42.136;24.796;2023-12-29T11:05:32;100279.63;;;17.82;65.04
10668;BME280;5382;42.136;24.796;2023-12-29T11:08:00;100269.19;;;18.52;62.78
10668;BME280;5382;42.136;24.796;2023-12-29T11:10:30;100264.94;;;18.95;59.96
10668;BME280;5382;42.136;24.796;2023-12-29T11:12:58;100261.31;;;19.31;58.67
10668;BME280;5382;42.136;24.796;2023-12-29T11:15:26;100258.22;;;19.70;57.50
10668;BME280;5382;42.136;24.796;2023-12-29T11:17:56;100252.56;;;20.48;54.61
10668;BME280;5382;42.136;24.796;2023-12-29T11:20:25;100238.97;;;21.40;52.18
10668;BME280;5382;42.136;24.796;2023-12-29T11:22:53;100243.53;;;21.87;49.93
10668;BME280;5382;42.136;24.796;2023-12-29T11:25:20;100237.66;;;22.69;48.33
10668;BME280;5382;42.136;24.796;2023-12-29T11:27:49;100233.91;;;23.60;45.79
10668;BME280;5382;42.136;24.796;2023-12-29T11:30:17;100231.03;;;24.28;43.81
10668;BME280;5382;42.136;24.796;2023-12-29T11:32:49;100229.25;;;24.78;42.00
10668;BME280;5382;42.136;24.796;2023-12-29T11:35:21;100229.47;;;24.76;42.11
10668;BME280;5382;42.136;24.796;2023-12-29T11:38:07;100216.78;;;25.33;39.21
10668;BME280;5382;42.136;24.796;2023-12-29T11:40:41;100218.44;;;25.28;39.40
10668;BME280;5382;42.136;24.796;2023-12-29T11:43:16;100209.31;;;25.42;38.95
10668;BME280;5382;42.136;24.796;2023-12-29T11:45:44;100215.88;;;25.54;37.34
10668;BME280;5382;42.136;24.796;2023-12-29T11:48:11;100209.88;;;25.02;37.54
10668;BME280;5382;42.136;24.796;2023-12-29T11:50:39;100213.50;;;25.44;36.92
10668;BME280;5382;42.136;24.796;2023-12-29T11:53:07;100187.53;;;25.57;35.76
10668;BME280;5382;42.136;24.796;2023-12-29T11:55:36;100199.41;;;26.04;35.94
10668;BME280;5382;42.136;24.796;2023-12-29T11:58:04;100205.63;;;26.72;35.20
10668;BME280;5382;42.136;24.796;2023-12-29T12:00:43;100203.63;;;26.33;35.04
10668;BME280;5382;42.136;24.796;2023-12-29T12:03:17;100200.50;;;26.23;35.13
10668;BME280;5382;42.136;24.796;2023-12-29T12:05:46;100202.88;;;26.99;34.79
10668;BME280;5382;42.136;24.796;2023-12-29T12:08:31;100199.75;;;27.29;34.33
10668;BME280;5382;42.136;24.796;2023-12-29T12:14:01;100201.53;;;25.67;35.15
10668;BME280;5382;42.136;24.796;2023-12-29T12:16:48;100197.47;;;25.84;34.89
10668;BME280;5382;42.136;24.796;2023-12-29T12:19:16;100194.50;;;25.79;34.40
10668;BME280;5382;42.136;24.796;2023-12-29T12:21:46;100195.13;;;25.81;35.32
10668;BME280;5382;42.136;24.796;2023-12-29T12:24:14;100199.78;;;25.87;34.32
10668;BME280;5382;42.136;24.796;2023-12-29T12:26:41;100195.84;;;25.55;34.17
10668;BME280;5382;42.136;24.796;2023-12-29T12:29:08;100198.84;;;26.28;33.70
10668;BME280;5382;42.136;24.796;2023-12-29T12:31:35;100187.16;;;26.35;33.66
10668;BME280;5382;42.136;24.796;2023-12-29T12:34:04;100190.69;;;26.15;33.24
10668;BME280;5382;42.136;24.796;2023-12-29T12:36:32;100189.75;;;26.69;33.46
10668;BME280;5382;42.136;24.796;2023-12-29T12:38:59;100181.97;;;27.00;32.87
10668;BME280;5382;42.136;24.796;2023-12-29T12:41:26;100180.97;;;27.86;32.05
10668;BME280;5382;42.136;24.796;2023-12-29T12:43:59;100167.47;;;28.36;31.15
10668;BME280;5382;42.136;24.796;2023-12-29T12:46:33;100185.84;;;28.72;30.59
10668;BME280;5382;42.136;24.796;2023-12-29T12:49:01;100184.69;;;29.30;30.40
10668;BME280;5382;42.136;24.796;2023-12-29T12:51:31;100183.09;;;29.59;29.71
10668;BME280;5382;42.136;24.796;2023-12-29T12:53:59;100178.69;;;29.58;29.57
10668;BME280;5382;42.136;24.796;2023-12-29T12:56:27;100181.84;;;29.92;29.51
10668;BME280;5382;42.136;24.796;2023-12-29T12:58:55;100177.75;;;30.01;28.16